createdAt,value
2018-02-13T00:00:16.483Z,1006.22
2018-02-13T00:01:19.350Z,1006.24
2018-02-13T00:02:25.236Z,1006.25
2018-02-13T00:04:21.653Z,1006.28
2018-02-13T00:05:18.558Z,1006.27
2018-02-13T00:07:03.143Z,1006.26
2018-02-13T00:08:03.112Z,1006.27
2018-02-13T00:09:03.095Z,1006.26
2018-02-13T00:10:03.137Z,1006.27
2018-02-13T00:11:03.115Z,1006.25
2018-02-13T00:12:03.069Z,1006.29
2018-02-13T00:13:03.062Z,1006.24
2018-02-13T00:14:03.055Z,1006.26
2018-02-13T00:15:03.035Z,1006.24
2018-02-13T00:16:03.034Z,1006.24
2018-02-13T00:17:03.030Z,1006.22
2018-02-13T00:18:03.006Z,1006.27
2018-02-13T00:19:05.284Z,1006.23
2018-02-13T00:20:02.984Z,1006.22
2018-02-13T00:21:02.966Z,1006.19
2018-02-13T00:22:02.960Z,1006.16
2018-02-13T00:23:02.947Z,1006.19
2018-02-13T00:24:02.944Z,1006.19
2018-02-13T00:25:02.932Z,1006.19
2018-02-13T00:26:02.921Z,1006.17
2018-02-13T00:27:02.911Z,1006.18
2018-02-13T00:28:02.907Z,1006.19
2018-02-13T00:29:02.887Z,1006.16
2018-02-13T00:30:02.877Z,1006.16
2018-02-13T00:31:02.869Z,1006.20
2018-02-13T00:32:02.863Z,1006.15
2018-02-13T00:33:02.844Z,1006.13
2018-02-13T00:34:02.834Z,1006.12
2018-02-13T00:35:02.824Z,1006.13
2018-02-13T00:37:24.161Z,1006.15
2018-02-13T00:38:23.932Z,1006.13
2018-02-13T00:41:18.099Z,1006.09
2018-02-13T00:42:17.186Z,1006.10
2018-02-13T00:43:17.253Z,1006.09
2018-02-13T00:46:10.706Z,1006.08
2018-02-13T00:47:10.619Z,1006.10
2018-02-13T00:48:10.578Z,1006.05
2018-02-13T00:49:10.539Z,1006.04
2018-02-13T00:50:10.572Z,1006.08
2018-02-13T00:51:10.532Z,1006.02
2018-02-13T00:52:10.793Z,1006.03
2018-02-13T00:53:10.473Z,1006.04
2018-02-13T00:54:10.455Z,1006.05
2018-02-13T00:55:10.453Z,1006.07
2018-02-13T00:56:10.437Z,1006.08
2018-02-13T00:57:10.424Z,1006.04
2018-02-13T00:58:10.416Z,1006.06
2018-02-13T00:59:10.399Z,1006.08
2018-02-13T01:00:10.396Z,1006.05
2018-02-13T01:01:10.392Z,1006.05
2018-02-13T01:02:10.371Z,1006.06
2018-02-13T01:03:10.356Z,1006.04
2018-02-13T01:04:10.346Z,1006.03
2018-02-13T01:05:10.344Z,1006.04
2018-02-13T01:06:10.329Z,1006.03
2018-02-13T01:07:10.318Z,1006.00
2018-02-13T01:08:10.311Z,1005.98
2018-02-13T01:09:10.303Z,1006.01
2018-02-13T01:10:10.287Z,1005.99
2018-02-13T01:11:10.272Z,1005.98
2018-02-13T01:12:10.263Z,1005.97
2018-02-13T01:13:10.258Z,1005.94
2018-02-13T01:14:10.252Z,1005.98
2018-02-13T01:15:10.228Z,1005.97
2018-02-13T01:16:10.222Z,1005.97
2018-02-13T01:17:10.228Z,1005.99
2018-02-13T01:18:10.195Z,1005.98
2018-02-13T01:19:10.183Z,1005.95
2018-02-13T01:20:10.173Z,1005.98
2018-02-13T01:21:10.160Z,1005.98
2018-02-13T01:22:10.148Z,1006.00
2018-02-13T01:23:10.139Z,1006.00
2018-02-13T01:24:10.128Z,1005.99
2018-02-13T01:25:10.123Z,1006.01
2018-02-13T01:26:10.106Z,1006.02
2018-02-13T01:27:10.094Z,1006.03
2018-02-13T01:28:10.083Z,1006.01
2018-02-13T01:29:10.074Z,1006.02
2018-02-13T01:30:10.064Z,1005.96
2018-02-13T01:31:10.075Z,1006.00
2018-02-13T01:32:10.044Z,1006.03
2018-02-13T01:33:10.029Z,1006.01
2018-02-13T01:34:10.032Z,1005.99
2018-02-13T01:35:10.012Z,1006.03
2018-02-13T01:36:09.999Z,1005.97
2018-02-13T01:37:09.990Z,1006.02
2018-02-13T01:38:09.981Z,1006.01
2018-02-13T01:39:09.964Z,1006.01
2018-02-13T01:40:09.972Z,1006.03
2018-02-13T01:41:09.941Z,1006.00
2018-02-13T01:42:09.941Z,1006.03
2018-02-13T01:43:09.940Z,1006.01
2018-02-13T01:44:09.934Z,1006.02
2018-02-13T01:45:09.893Z,1005.99
2018-02-13T01:46:09.906Z,1006.01
2018-02-13T01:47:09.872Z,1006.02
2018-02-13T01:48:09.860Z,1005.94
2018-02-13T01:49:18.695Z,1006.02
2018-02-13T01:51:03.487Z,1005.97
2018-02-13T01:52:03.233Z,1005.99
2018-02-13T01:53:03.256Z,1005.96
2018-02-13T01:54:03.365Z,1005.99
2018-02-13T01:55:03.212Z,1005.97
2018-02-13T01:56:03.188Z,1005.98
2018-02-13T01:57:03.173Z,1005.98
2018-02-13T01:58:03.213Z,1005.99
2018-02-13T01:59:03.158Z,1005.98
2018-02-13T02:00:03.153Z,1005.98
2018-02-13T02:01:03.131Z,1006.01
2018-02-13T02:02:03.124Z,1006.03
2018-02-13T02:03:03.123Z,1006.04
2018-02-13T02:04:03.102Z,1006.04
2018-02-13T02:05:03.090Z,1006.06
2018-02-13T02:06:03.074Z,1006.02
2018-02-13T02:07:03.068Z,1006.06
2018-02-13T02:08:03.051Z,1006.08
2018-02-13T02:09:03.040Z,1006.04
2018-02-13T02:10:03.037Z,1006.05
2018-02-13T02:11:03.023Z,1006.05
2018-02-13T02:12:03.008Z,1006.03
2018-02-13T02:13:03.004Z,1005.99
2018-02-13T02:14:02.980Z,1006.03
2018-02-13T02:15:02.971Z,1006.00
2018-02-13T02:16:02.957Z,1005.99
2018-02-13T02:17:02.949Z,1006.00
2018-02-13T02:18:02.935Z,1005.97
2018-02-13T02:19:02.923Z,1005.98
2018-02-13T02:20:02.917Z,1005.96
2018-02-13T02:21:02.905Z,1005.95
2018-02-13T02:22:02.893Z,1005.94
2018-02-13T02:23:02.877Z,1005.92
2018-02-13T02:24:02.869Z,1005.93
2018-02-13T02:25:02.868Z,1005.95
2018-02-13T02:26:02.865Z,1005.91
2018-02-13T02:27:02.831Z,1005.88
2018-02-13T02:28:02.825Z,1005.89
2018-02-13T02:29:02.812Z,1005.82
2018-02-13T02:30:02.806Z,1005.88
2018-02-13T02:31:02.789Z,1005.87
2018-02-13T02:32:02.775Z,1005.85
2018-02-13T02:33:02.763Z,1005.86
2018-02-13T02:34:02.762Z,1005.83
2018-02-13T02:35:02.794Z,1005.84
2018-02-13T02:36:02.729Z,1005.81
2018-02-13T02:37:02.716Z,1005.80
2018-02-13T02:38:02.704Z,1005.82
2018-02-13T02:39:02.695Z,1005.79
2018-02-13T02:40:02.692Z,1005.78
2018-02-13T02:41:02.673Z,1005.78
2018-02-13T02:42:02.657Z,1005.76
2018-02-13T02:43:02.653Z,1005.75
2018-02-13T02:44:02.647Z,1005.74
2018-02-13T02:45:02.630Z,1005.73
2018-02-13T02:46:02.615Z,1005.73
2018-02-13T02:47:02.599Z,1005.74
2018-02-13T02:48:02.587Z,1005.71
2018-02-13T02:49:02.576Z,1005.72
2018-02-13T02:50:02.567Z,1005.68
2018-02-13T02:51:02.560Z,1005.71
2018-02-13T02:52:02.546Z,1005.66
2018-02-13T02:53:02.531Z,1005.70
2018-02-13T02:54:02.523Z,1005.66
2018-02-13T02:55:02.510Z,1005.63
2018-02-13T02:56:02.499Z,1005.59
2018-02-13T02:57:02.484Z,1005.60
2018-02-13T02:58:02.469Z,1005.61
2018-02-13T02:59:02.458Z,1005.59
2018-02-13T03:00:02.450Z,1005.59
2018-02-13T03:01:02.504Z,1005.57
2018-02-13T03:02:02.426Z,1005.60
2018-02-13T03:04:23.491Z,1005.57
2018-02-13T03:24:02.429Z,1005.53
2018-02-13T03:25:01.967Z,1005.51
2018-02-13T03:26:02.276Z,1005.49
2018-02-13T03:27:00.395Z,1005.44
2018-02-13T03:28:01.584Z,1005.45
2018-02-13T03:29:00.174Z,1005.44
2018-02-13T03:29:59.945Z,1005.44
2018-02-13T03:31:00.030Z,1005.46
2018-02-13T03:31:59.990Z,1005.48
2018-02-13T03:32:59.979Z,1005.45
2018-02-13T03:34:10.102Z,1005.41
2018-02-13T03:35:53.758Z,1005.41
2018-02-13T03:36:53.728Z,1005.42
2018-02-13T03:39:16.625Z,1005.42
2018-02-13T03:42:08.955Z,1005.39
2018-02-13T03:43:08.958Z,1005.36
2018-02-13T03:44:09.047Z,1005.34
2018-02-13T03:45:11.154Z,1005.33
2018-02-13T03:46:08.870Z,1005.33
2018-02-13T03:47:08.811Z,1005.33
2018-02-13T03:48:08.802Z,1005.31
2018-02-13T03:49:08.799Z,1005.29
2018-02-13T03:50:08.783Z,1005.29
2018-02-13T03:51:08.761Z,1005.30
2018-02-13T03:52:08.747Z,1005.27
2018-02-13T03:53:08.735Z,1005.28
2018-02-13T03:54:08.729Z,1005.27
2018-02-13T03:55:08.709Z,1005.26
2018-02-13T03:56:08.757Z,1005.27
2018-02-13T03:57:08.696Z,1005.28
2018-02-13T03:58:08.675Z,1005.24
2018-02-13T03:59:08.664Z,1005.26
2018-02-13T04:00:08.656Z,1005.27
2018-02-13T04:01:08.652Z,1005.25
2018-02-13T04:02:08.647Z,1005.28
2018-02-13T04:03:08.621Z,1005.24
2018-02-13T04:04:08.605Z,1005.22
2018-02-13T04:05:08.597Z,1005.22
2018-02-13T04:06:08.581Z,1005.22
2018-02-13T04:07:08.574Z,1005.24
2018-02-13T04:08:08.624Z,1005.23
2018-02-13T04:09:08.551Z,1005.22
2018-02-13T04:10:08.543Z,1005.22
2018-02-13T04:11:08.532Z,1005.24
2018-02-13T04:12:08.519Z,1005.23
2018-02-13T04:13:08.505Z,1005.26
2018-02-13T04:14:08.492Z,1005.24
2018-02-13T04:15:08.474Z,1005.26
2018-02-13T04:16:08.753Z,1005.24
2018-02-13T04:17:08.458Z,1005.26
2018-02-13T04:18:08.442Z,1005.23
2018-02-13T04:19:08.459Z,1005.29
2018-02-13T04:20:08.419Z,1005.24
2018-02-13T04:21:08.429Z,1005.20
2018-02-13T04:22:08.395Z,1005.17
2018-02-13T04:23:08.392Z,1005.22
2018-02-13T04:24:08.413Z,1005.20
2018-02-13T04:25:08.363Z,1005.16
2018-02-13T04:26:08.347Z,1005.15
2018-02-13T04:27:08.377Z,1005.19
2018-02-13T04:28:08.329Z,1005.14
2018-02-13T04:29:08.335Z,1005.14
2018-02-13T04:30:08.306Z,1005.14
2018-02-13T04:31:08.288Z,1005.13
2018-02-13T04:32:08.287Z,1005.12
2018-02-13T04:33:08.273Z,1005.16
2018-02-13T04:34:08.252Z,1005.17
2018-02-13T04:35:08.242Z,1005.14
2018-02-13T04:36:08.229Z,1005.13
2018-02-13T04:37:08.220Z,1005.13
2018-02-13T04:38:08.208Z,1005.11
2018-02-13T04:39:08.201Z,1005.11
2018-02-13T04:40:08.183Z,1005.11
2018-02-13T04:41:08.179Z,1005.11
2018-02-13T04:42:08.240Z,1005.08
2018-02-13T04:43:08.170Z,1005.07
2018-02-13T04:44:08.136Z,1005.08
2018-02-13T04:45:08.131Z,1005.11
2018-02-13T04:46:08.110Z,1005.08
2018-02-13T04:47:08.100Z,1005.03
2018-02-13T04:48:08.089Z,1005.04
2018-02-13T04:49:08.073Z,1005.06
2018-02-13T04:50:08.060Z,1005.03
2018-02-13T04:51:08.098Z,1005.07
2018-02-13T04:52:08.048Z,1005.03
2018-02-13T04:53:08.070Z,1005.03
2018-02-13T04:54:08.018Z,1005.06
2018-02-13T04:55:08.004Z,1005.01
2018-02-13T04:56:07.996Z,1005.02
2018-02-13T04:57:07.981Z,1005.03
2018-02-13T04:58:07.969Z,1005.02
2018-02-13T04:59:07.958Z,1004.99
2018-02-13T05:00:07.952Z,1005.02
2018-02-13T05:01:07.946Z,1004.99
2018-02-13T05:02:07.982Z,1004.97
2018-02-13T05:03:07.906Z,1004.99
2018-02-13T05:04:07.896Z,1004.96
2018-02-13T05:05:07.883Z,1004.96
2018-02-13T05:06:07.887Z,1004.93
2018-02-13T05:07:07.912Z,1004.93
2018-02-13T05:08:07.882Z,1004.90
2018-02-13T05:09:07.836Z,1004.94
2018-02-13T05:10:07.828Z,1004.94
2018-02-13T05:11:07.824Z,1004.93
2018-02-13T05:12:07.803Z,1004.92
2018-02-13T05:13:07.798Z,1004.90
2018-02-13T05:14:16.800Z,1004.91
2018-02-13T05:16:11.646Z,1004.89
2018-02-13T05:17:01.320Z,1004.89
2018-02-13T05:18:01.242Z,1004.88
2018-02-13T05:19:01.317Z,1004.89
2018-02-13T05:20:01.126Z,1004.90
2018-02-13T05:21:01.086Z,1004.90
2018-02-13T05:22:01.078Z,1004.88
2018-02-13T05:23:01.112Z,1004.90
2018-02-13T05:24:01.047Z,1004.90
2018-02-13T05:27:05.697Z,1004.86
2018-02-13T05:29:26.820Z,1004.86
2018-02-13T05:32:19.604Z,1004.86
2018-02-13T05:34:33.632Z,1004.89
2018-02-13T05:35:30.898Z,1004.88
2018-02-13T05:36:30.835Z,1004.90
2018-02-13T05:37:30.805Z,1004.94
2018-02-13T05:38:30.786Z,1004.90
2018-02-13T05:39:31.048Z,1004.90
2018-02-13T05:40:30.749Z,1004.91
2018-02-13T05:41:30.736Z,1004.93
2018-02-13T05:42:30.716Z,1004.91
2018-02-13T05:43:30.704Z,1004.91
2018-02-13T05:44:30.691Z,1004.87
2018-02-13T05:45:30.683Z,1004.88
2018-02-13T05:46:30.671Z,1004.85
2018-02-13T05:47:30.665Z,1004.86
2018-02-13T05:48:30.647Z,1004.82
2018-02-13T05:49:30.638Z,1004.81
2018-02-13T05:50:30.624Z,1004.79
2018-02-13T05:51:30.622Z,1004.80
2018-02-13T05:52:30.626Z,1004.81
2018-02-13T05:53:30.598Z,1004.80
2018-02-13T05:54:30.580Z,1004.80
2018-02-13T05:57:25.804Z,1004.82
2018-02-13T05:58:24.308Z,1004.81
2018-02-13T05:59:24.124Z,1004.78
2018-02-13T06:00:24.224Z,1004.80
2018-02-13T06:01:26.671Z,1004.78
2018-02-13T06:02:27.162Z,1004.76
2018-02-13T06:03:23.863Z,1004.75
2018-02-13T06:04:23.848Z,1004.76
2018-02-13T06:05:23.846Z,1004.73
2018-02-13T06:06:23.863Z,1004.73
2018-02-13T06:07:23.837Z,1004.74
2018-02-13T06:08:23.807Z,1004.71
2018-02-13T06:09:23.795Z,1004.71
2018-02-13T06:10:23.786Z,1004.74
2018-02-13T06:11:23.790Z,1004.73
2018-02-13T06:12:23.817Z,1004.71
2018-02-13T06:13:23.747Z,1004.68
2018-02-13T06:14:23.740Z,1004.64
2018-02-13T06:15:23.722Z,1004.66
2018-02-13T06:16:23.715Z,1004.67
2018-02-13T06:17:23.721Z,1004.67
2018-02-13T06:18:23.691Z,1004.69
2018-02-13T06:19:23.676Z,1004.64
2018-02-13T06:20:23.666Z,1004.66
2018-02-13T06:21:23.653Z,1004.66
2018-02-13T06:22:23.645Z,1004.61
2018-02-13T06:23:23.649Z,1004.63
2018-02-13T06:24:23.616Z,1004.66
2018-02-13T06:25:23.606Z,1004.65
2018-02-13T06:26:23.593Z,1004.65
2018-02-13T06:27:23.587Z,1004.65
2018-02-13T06:28:23.577Z,1004.68
2018-02-13T06:29:32.528Z,1004.64
2018-02-13T06:31:26.179Z,1004.63
2018-02-13T06:32:25.914Z,1004.65
2018-02-13T06:34:10.329Z,1004.67
2018-02-13T06:35:19.453Z,1004.65
2018-02-13T06:37:13.051Z,1004.66
2018-02-13T06:38:12.744Z,1004.64
2018-02-13T06:39:57.432Z,1004.63
2018-02-13T06:40:57.028Z,1004.65
2018-02-13T06:41:56.990Z,1004.64
2018-02-13T06:42:56.983Z,1004.65
2018-02-13T06:43:57.002Z,1004.67
2018-02-13T06:44:57.195Z,1004.69
2018-02-13T06:45:57.305Z,1004.67
2018-02-13T06:46:56.936Z,1004.65
2018-02-13T06:47:56.921Z,1004.67
2018-02-13T06:48:56.909Z,1004.65
2018-02-13T06:49:56.896Z,1004.63
2018-02-13T06:50:56.917Z,1004.62
2018-02-13T06:51:56.878Z,1004.61
2018-02-13T06:52:56.866Z,1004.62
2018-02-13T06:53:56.845Z,1004.67
2018-02-13T06:54:56.843Z,1004.65
2018-02-13T06:55:56.829Z,1004.62
2018-02-13T06:56:56.815Z,1004.62
2018-02-13T06:57:56.812Z,1004.63
2018-02-13T06:58:56.793Z,1004.64
2018-02-13T06:59:56.779Z,1004.61
2018-02-13T07:00:56.767Z,1004.60
2018-02-13T07:01:56.767Z,1004.63
2018-02-13T07:02:56.745Z,1004.63
2018-02-13T07:03:56.735Z,1004.66
2018-02-13T07:04:56.725Z,1004.67
2018-02-13T07:05:56.714Z,1004.67
2018-02-13T07:06:56.703Z,1004.65
2018-02-13T07:07:56.685Z,1004.64
2018-02-13T07:08:56.675Z,1004.64
2018-02-13T07:09:56.669Z,1004.68
2018-02-13T07:10:56.665Z,1004.64
2018-02-13T07:11:56.640Z,1004.67
2018-02-13T07:12:56.636Z,1004.65
2018-02-13T07:13:56.616Z,1004.66
2018-02-13T07:14:56.609Z,1004.63
2018-02-13T07:15:56.594Z,1004.65
2018-02-13T07:16:56.584Z,1004.61
2018-02-13T07:17:56.578Z,1004.62
2018-02-13T07:18:56.595Z,1004.61
2018-02-13T07:19:56.549Z,1004.69
2018-02-13T07:20:56.538Z,1004.65
2018-02-13T07:21:56.529Z,1004.67
2018-02-13T07:22:56.522Z,1004.63
2018-02-13T07:23:56.541Z,1004.66
2018-02-13T07:24:56.518Z,1004.64
2018-02-13T07:25:56.481Z,1004.64
2018-02-13T07:26:56.485Z,1004.63
2018-02-13T07:27:56.461Z,1004.65
2018-02-13T07:28:56.462Z,1004.69
2018-02-13T07:29:56.437Z,1004.66
2018-02-13T07:30:56.427Z,1004.61
2018-02-13T07:31:56.413Z,1004.64
2018-02-13T07:32:56.407Z,1004.63
2018-02-13T07:33:56.391Z,1004.58
2018-02-13T07:34:56.383Z,1004.67
2018-02-13T07:35:56.367Z,1004.59
2018-02-13T07:36:56.356Z,1004.60
2018-02-13T07:37:56.343Z,1004.60
2018-02-13T07:38:57.681Z,1004.58
2018-02-13T07:39:56.333Z,1004.56
2018-02-13T07:40:57.595Z,1004.57
2018-02-13T07:41:58.393Z,1004.56
2018-02-13T07:42:56.324Z,1004.55
2018-02-13T07:43:56.276Z,1004.61
2018-02-13T07:44:56.285Z,1004.57
2018-02-13T07:45:56.272Z,1004.54
2018-02-13T07:46:56.252Z,1004.50
2018-02-13T07:47:57.435Z,1004.53
2018-02-13T07:48:56.225Z,1004.51
2018-02-13T07:49:56.211Z,1004.52
2018-02-13T07:50:56.520Z,1004.47
2018-02-13T07:51:56.988Z,1004.51
2018-02-13T07:52:56.194Z,1004.52
2018-02-13T07:54:05.894Z,1004.48
2018-02-13T07:55:51.618Z,1004.50
2018-02-13T07:57:00.767Z,1004.51
2018-02-13T07:58:47.380Z,1004.48
2018-02-13T07:59:44.596Z,1004.46
2018-02-13T08:00:44.593Z,1004.43
2018-02-13T08:01:44.573Z,1004.43
2018-02-13T08:02:44.585Z,1004.45
2018-02-13T08:03:50.849Z,1004.43
2018-02-13T08:04:44.734Z,1004.47
2018-02-13T08:05:44.523Z,1004.42
2018-02-13T08:06:45.936Z,1004.44
2018-02-13T08:07:45.136Z,1004.41
2018-02-13T08:08:44.483Z,1004.47
2018-02-13T08:09:44.473Z,1004.41
2018-02-13T08:10:44.466Z,1004.42
2018-02-13T08:11:44.813Z,1004.42
2018-02-13T08:12:54.011Z,1004.40
2018-02-13T08:14:39.068Z,1004.39
2018-02-13T08:17:42.808Z,1004.33
2018-02-13T08:18:41.031Z,1004.32
2018-02-13T08:20:35.461Z,1004.31
2018-02-13T08:22:57.870Z,1004.30
2018-02-13T08:25:48.955Z,1004.28
2018-02-13T08:26:40.319Z,1004.24
2018-02-13T08:27:48.231Z,1004.27
2018-02-13T08:30:33.652Z,1004.21
2018-02-13T08:31:33.713Z,1004.21
2018-02-13T08:32:33.860Z,1004.25
2018-02-13T08:33:34.197Z,1004.23
2018-02-13T08:34:33.749Z,1004.18
2018-02-13T08:35:33.574Z,1004.18
2018-02-13T08:36:34.309Z,1004.22
2018-02-13T08:37:33.541Z,1004.15
2018-02-13T08:38:34.207Z,1004.17
2018-02-13T08:39:33.522Z,1004.16
2018-02-13T08:40:33.846Z,1004.15
2018-02-13T08:41:33.517Z,1004.15
2018-02-13T08:42:33.499Z,1004.11
2018-02-13T08:43:34.712Z,1004.09
2018-02-13T08:44:34.264Z,1004.12
2018-02-13T08:45:33.454Z,1004.11
2018-02-13T08:46:33.449Z,1004.12
2018-02-13T08:47:33.568Z,1004.14
2018-02-13T08:48:36.185Z,1004.12
2018-02-13T08:49:33.417Z,1004.09
2018-02-13T08:50:33.427Z,1004.09
2018-02-13T08:51:34.117Z,1004.08
2018-02-13T08:52:33.383Z,1004.05
2018-02-13T08:53:33.374Z,1004.04
2018-02-13T08:54:33.371Z,1004.04
2018-02-13T08:55:33.350Z,1004.01
2018-02-13T08:56:33.341Z,1004.01
2018-02-13T08:57:33.345Z,1004.03
2018-02-13T08:58:33.333Z,1004.01
2018-02-13T08:59:33.317Z,1003.99
2018-02-13T09:00:33.373Z,1003.99
2018-02-13T09:01:33.915Z,1004.01
2018-02-13T09:02:33.274Z,1004.01
2018-02-13T09:03:33.267Z,1003.93
2018-02-13T09:04:33.255Z,1003.93
2018-02-13T09:05:33.243Z,1003.95
2018-02-13T09:06:33.237Z,1003.94
2018-02-13T09:07:33.223Z,1003.90
2018-02-13T09:08:33.212Z,1003.90
2018-02-13T09:09:33.320Z,1003.89
2018-02-13T09:10:33.200Z,1003.91
2018-02-13T09:11:34.945Z,1003.88
2018-02-13T09:12:33.173Z,1003.82
2018-02-13T09:15:00.632Z,1003.86
2018-02-13T09:15:58.053Z,1003.81
2018-02-13T09:16:58.048Z,1003.88
2018-02-13T09:17:58.034Z,1003.85
2018-02-13T09:18:58.054Z,1003.85
2018-02-13T09:19:58.242Z,1003.80
2018-02-13T09:20:58.008Z,1003.81
2018-02-13T09:21:57.989Z,1003.81
2018-02-13T09:22:57.978Z,1003.80
2018-02-13T09:25:51.541Z,1003.83
2018-02-13T09:26:51.401Z,1003.82
2018-02-13T09:28:00.147Z,1003.77
2018-02-13T09:29:55.122Z,1003.74
2018-02-13T09:30:53.730Z,1003.72
2018-02-13T09:32:47.420Z,1003.73
2018-02-13T09:33:45.549Z,1003.68
2018-02-13T09:35:31.718Z,1003.67
2018-02-13T09:36:41.383Z,1003.64
2018-02-13T09:38:25.081Z,1003.58
2018-02-13T09:39:24.804Z,1003.64
2018-02-13T09:40:24.775Z,1003.65
2018-02-13T09:41:24.915Z,1003.59
2018-02-13T09:42:24.798Z,1003.62
2018-02-13T09:43:24.869Z,1003.54
2018-02-13T09:44:24.733Z,1003.56
2018-02-13T09:45:24.747Z,1003.54
2018-02-13T09:46:24.716Z,1003.58
2018-02-13T09:47:24.716Z,1003.56
2018-02-13T09:48:24.696Z,1003.50
2018-02-13T09:49:24.690Z,1003.51
2018-02-13T09:50:24.675Z,1003.44
2018-02-13T09:51:24.672Z,1003.46
2018-02-13T09:52:24.651Z,1003.42
2018-02-13T09:53:24.648Z,1003.41
2018-02-13T09:54:24.634Z,1003.41
2018-02-13T09:55:24.624Z,1003.43
2018-02-13T09:56:24.619Z,1003.43
2018-02-13T09:57:24.641Z,1003.42
2018-02-13T09:58:24.595Z,1003.41
2018-02-13T09:59:24.591Z,1003.39
2018-02-13T10:00:24.570Z,1003.38
2018-02-13T10:01:24.573Z,1003.38
2018-02-13T10:02:24.554Z,1003.39
2018-02-13T10:03:24.547Z,1003.39
2018-02-13T10:04:24.576Z,1003.39
2018-02-13T10:05:24.522Z,1003.37
2018-02-13T10:06:24.512Z,1003.32
2018-02-13T10:07:24.520Z,1003.30
2018-02-13T10:08:24.522Z,1003.29
2018-02-13T10:09:24.488Z,1003.31
2018-02-13T10:10:24.471Z,1003.29
2018-02-13T10:11:24.464Z,1003.27
2018-02-13T10:12:24.449Z,1003.26
2018-02-13T10:13:24.442Z,1003.26
2018-02-13T10:14:24.441Z,1003.23
2018-02-13T10:15:24.426Z,1003.21
2018-02-13T10:16:24.410Z,1003.19
2018-02-13T10:17:24.403Z,1003.20
2018-02-13T10:18:24.392Z,1003.18
2018-02-13T10:19:33.151Z,1003.12
2018-02-13T10:21:28.333Z,1003.13
2018-02-13T10:22:26.209Z,1003.07
2018-02-13T10:24:21.015Z,1003.08
2018-02-13T10:25:10.654Z,1003.07
2018-02-13T10:26:10.671Z,1003.06
2018-02-13T10:27:10.635Z,1003.06
2018-02-13T10:28:10.680Z,1003.05
2018-02-13T10:29:10.869Z,1002.99
2018-02-13T10:30:10.606Z,1003.00
2018-02-13T10:31:10.591Z,1002.95
2018-02-13T10:32:10.585Z,1003.00
2018-02-13T10:33:10.606Z,1002.95
2018-02-13T10:34:10.561Z,1002.92
2018-02-13T10:35:10.557Z,1002.89
2018-02-13T10:36:10.546Z,1002.86
2018-02-13T10:37:10.536Z,1002.84
2018-02-13T10:38:10.522Z,1002.85
2018-02-13T10:39:10.521Z,1002.80
2018-02-13T10:40:10.512Z,1002.82
2018-02-13T10:41:10.495Z,1002.75
2018-02-13T10:42:10.494Z,1002.74
2018-02-13T10:43:10.475Z,1002.78
2018-02-13T10:44:10.467Z,1002.72
2018-02-13T10:45:10.463Z,1002.73
2018-02-13T10:46:10.444Z,1002.66
2018-02-13T10:47:10.435Z,1002.67
2018-02-13T10:48:10.430Z,1002.69
2018-02-13T10:49:10.420Z,1002.65
2018-02-13T10:50:10.409Z,1002.70
2018-02-13T10:51:10.399Z,1002.63
2018-02-13T10:52:10.390Z,1002.60
2018-02-13T10:53:10.383Z,1002.60
2018-02-13T10:54:10.373Z,1002.63
2018-02-13T10:55:10.362Z,1002.58
2018-02-13T10:56:10.391Z,1002.55
2018-02-13T10:57:10.347Z,1002.53
2018-02-13T10:58:10.335Z,1002.55
2018-02-13T10:59:10.328Z,1002.48
2018-02-13T11:00:10.316Z,1002.48
2018-02-13T11:01:10.312Z,1002.44
2018-02-13T11:02:10.297Z,1002.49
2018-02-13T11:03:10.288Z,1002.50
2018-02-13T11:04:10.280Z,1002.43
2018-02-13T11:05:10.272Z,1002.43
2018-02-13T11:06:10.266Z,1002.42
2018-02-13T11:07:10.252Z,1002.36
2018-02-13T11:08:10.245Z,1002.38
2018-02-13T11:09:10.231Z,1002.29
2018-02-13T11:10:10.224Z,1002.34
2018-02-13T11:11:10.218Z,1002.31
2018-02-13T11:12:10.219Z,1002.29
2018-02-13T11:13:10.196Z,1002.25
2018-02-13T11:14:10.187Z,1002.23
2018-02-13T11:15:10.178Z,1002.19
2018-02-13T11:16:10.170Z,1002.16
2018-02-13T11:17:10.164Z,1002.10
2018-02-13T11:18:10.150Z,1002.11
2018-02-13T11:19:10.143Z,1002.10
2018-02-13T11:20:10.135Z,1002.10
2018-02-13T11:21:10.129Z,1002.08
2018-02-13T11:22:10.128Z,1002.07
2018-02-13T11:23:10.105Z,1002.05
2018-02-13T11:24:10.099Z,1001.95
2018-02-13T11:25:10.092Z,1001.97
2018-02-13T11:26:10.080Z,1001.93
2018-02-13T11:27:10.067Z,1001.85
2018-02-13T11:28:10.069Z,1001.91
2018-02-13T11:29:10.072Z,1001.83
2018-02-13T11:30:10.050Z,1001.82
2018-02-13T11:32:31.069Z,1001.84
2018-02-13T11:33:31.038Z,1001.81
2018-02-13T11:34:31.038Z,1001.77
2018-02-13T11:35:31.045Z,1001.74
2018-02-13T11:36:31.230Z,1001.74
2018-02-13T11:37:31.021Z,1001.77
2018-02-13T11:38:30.996Z,1001.74
2018-02-13T11:39:30.983Z,1001.77
2018-02-13T11:40:30.972Z,1001.75
2018-02-13T11:41:30.965Z,1001.78
2018-02-13T11:42:30.956Z,1001.74
2018-02-13T11:43:30.950Z,1001.79
2018-02-13T11:44:30.939Z,1001.73
2018-02-13T11:45:30.953Z,1001.68
2018-02-13T11:46:30.922Z,1001.65
2018-02-13T11:47:30.916Z,1001.66
2018-02-13T11:48:30.925Z,1001.63
2018-02-13T11:49:30.894Z,1001.63
2018-02-13T11:50:30.920Z,1001.55
2018-02-13T11:51:30.876Z,1001.53
2018-02-13T11:52:30.869Z,1001.44
2018-02-13T11:53:30.860Z,1001.49
2018-02-13T11:54:30.853Z,1001.46
2018-02-13T11:55:30.841Z,1001.43
2018-02-13T11:56:30.835Z,1001.44
2018-02-13T11:57:30.827Z,1001.40
2018-02-13T11:58:30.836Z,1001.40
2018-02-13T11:59:30.820Z,1001.36
2018-02-13T12:00:30.801Z,1001.37
2018-02-13T12:01:30.790Z,1001.33
2018-02-13T12:02:30.784Z,1001.34
2018-02-13T12:03:30.776Z,1001.31
2018-02-13T12:04:31.003Z,1001.27
2018-02-13T12:05:30.765Z,1001.25
2018-02-13T12:06:30.746Z,1001.21
2018-02-13T12:07:30.739Z,1001.22
2018-02-13T12:08:30.732Z,1001.19
2018-02-13T12:09:30.722Z,1001.16
2018-02-13T12:10:30.716Z,1001.12
2018-02-13T12:11:30.733Z,1001.07
2018-02-13T12:12:30.698Z,1001.03
2018-02-13T12:13:30.694Z,1001.02
2018-02-13T12:14:30.679Z,1001.05
2018-02-13T12:15:30.672Z,1001.00
2018-02-13T12:16:30.664Z,1000.98
2018-02-13T12:17:30.661Z,1000.92
2018-02-13T12:18:30.720Z,1000.94
2018-02-13T12:19:30.637Z,1000.94
2018-02-13T12:20:30.684Z,1000.88
2018-02-13T12:21:30.619Z,1000.89
2018-02-13T12:22:30.645Z,1000.91
2018-02-13T12:23:30.607Z,1000.92
2018-02-13T12:24:39.061Z,1000.91
2018-02-13T12:26:33.411Z,1000.83
2018-02-13T12:27:33.175Z,1000.82
2018-02-13T12:29:18.912Z,1000.77
2018-02-13T12:30:20.465Z,1000.79
2018-02-13T12:31:18.778Z,1000.74
2018-02-13T12:33:51.329Z,1000.74
2018-02-13T12:34:50.645Z,1000.69
2018-02-13T12:36:36.454Z,1000.69
2018-02-13T12:37:36.498Z,1000.65
2018-02-13T12:38:36.204Z,1000.63
2018-02-13T12:39:36.469Z,1000.63
2018-02-13T12:40:36.021Z,1000.62
2018-02-13T12:41:35.998Z,1000.63
2018-02-13T12:42:35.992Z,1000.62
2018-02-13T12:43:45.271Z,1000.55
2018-02-13T12:45:39.753Z,1000.59
2018-02-13T12:46:39.529Z,1000.58
2018-02-13T12:48:23.963Z,1000.56
2018-02-13T12:49:23.405Z,1000.58
2018-02-13T12:50:23.221Z,1000.50
2018-02-13T12:51:23.055Z,1000.54
2018-02-13T12:52:22.937Z,1000.54
2018-02-13T12:53:22.909Z,1000.58
2018-02-13T12:54:22.956Z,1000.56
2018-02-13T12:55:22.876Z,1000.57
2018-02-13T12:56:22.871Z,1000.52
2018-02-13T12:57:22.850Z,1000.53
2018-02-13T12:58:22.849Z,1000.44
2018-02-13T12:59:22.839Z,1000.43
2018-02-13T13:00:22.886Z,1000.35
2018-02-13T13:01:22.829Z,1000.35
2018-02-13T13:02:22.817Z,1000.33
2018-02-13T13:03:22.805Z,1000.29
2018-02-13T13:04:22.799Z,1000.25
2018-02-13T13:05:22.805Z,1000.28
2018-02-13T13:06:22.790Z,1000.23
2018-02-13T13:07:22.783Z,1000.17
2018-02-13T13:08:22.765Z,1000.18
2018-02-13T13:09:22.757Z,1000.18
2018-02-13T13:10:22.748Z,1000.19
2018-02-13T13:11:22.734Z,1000.16
2018-02-13T13:12:22.730Z,1000.11
2018-02-13T13:13:22.723Z,1000.12
2018-02-13T13:14:22.712Z,1000.11
2018-02-13T13:15:22.701Z,1000.09
2018-02-13T13:16:22.695Z,1000.07